Macamic, Canada
Current Conditions -  °F | °C
As of 1:00 AM on Wednesday 28 Jan 2015 (Local Time) from CYUY Reporting Station
Clear Clear  
Wind Chill: -18°   Ceiling: Unl
Heat Index: -18°   Visibility: 15mi
Dew Point: -24°   Wind: 3mph
Humidity: 76%   Direction: 110°ESE
Pressure: 30.17"   Gusts: NA
Location:  48.77°N, 79°W
Report Text: CYUY 280600Z 11003KT 15SM SKC M28/M31 A3017 RMK SLP251
Loading
Personal Weather Stations






























Interactive Weather Map New forecast layout! Learn more

10-Day Weather Forecast

Advertisements
Track Severe Weather on mobile